This is the latest recevied weather packets stored in our database for station/object DG3RAP-11. If no packets are shown the sender has not sent any weather packets the latest 10 day(s).
| Time | Temp. | Humidity | Pressure | Rain* | Wind** | Luminosity | Snow |
|---|---|---|---|---|---|---|---|
| 1777766043 | 13.89° C | 43% | 1016.8 hPa | 0 mm | - | - | - |
| 1777765503 | 13.33° C | 44% | 1016.8 hPa | 0 mm | - | - | - |
| 1777764963 | 13.33° C | 43% | 1016.7 hPa | 0 mm | - | - | - |
| 1777764423 | 13.89° C | 43% | 1017 hPa | 0 mm | - | - | - |
| 1777763883 | 13.89° C | 43% | 1017 hPa | 0 mm | - | - | - |
| 1777763343 | 13.89° C | 43% | 1017 hPa | 0 mm | - | - | - |
| 1777762803 | 13.89° C | 42% | 1017.1 hPa | 0 mm | - | - | - |
| 1777762443 | 14.44° C | 41% | 1017 hPa | 0 mm | - | - | - |
| 1777761903 | 14.44° C | 41% | 1017.1 hPa | 0 mm | - | - | - |
| 1777761363 | 14.44° C | 42% | 1017.2 hPa | 0 mm | - | - | - |
| 1777760823 | 13.33° C | 46% | 1017.1 hPa | 0 mm | - | - | - |
| 1777760283 | 13.33° C | 47% | 1017.3 hPa | 0 mm | - | - | - |
| 1777759743 | 13.33° C | 47% | 1017 hPa | 0 mm | - | - | - |
| 1777759203 | 13.33° C | 50% | 1017.1 hPa | 0 mm | - | - | - |
| 1777758843 | 12.78° C | 51% | 1017 hPa | 0 mm | - | - | - |
| 1777758303 | 12.78° C | 50% | 1017 hPa | 0 mm | - | - | - |
| 1777757763 | 15° C | 42% | 1017.1 hPa | 0 mm | - | - | - |
| 1777757223 | 16.11° C | 36% | 1017 hPa | 0 mm | - | - | - |
| 1777756683 | 16.67° C | 35% | 1017 hPa | 0 mm | - | - | - |
| 1777756143 | 15.56° C | 36% | 1016.9 hPa | 0 mm | - | - | - |
| 1777755603 | 15.56° C | 36% | 1017.4 hPa | 0 mm | - | - | - |
| 1777755243 | 16.67° C | 33% | 1017.2 hPa | 0 mm | - | - | - |
| 1777754703 | 17.78° C | 31% | 1017.1 hPa | 0 mm | - | - | - |
| 1777754163 | 17.22° C | 32% | 1017.3 hPa | 0 mm | - | - | - |
| 1777753623 | 18.33° C | 29% | 1017.2 hPa | 0 mm | - | - | - |
* Rain latest hour (hover to see other rain measurements)
** Current wind speed in m/s (hover to see current wind gust speed)